Time;durP1;ratioP1;P1;durP2;ratioP2;P2;SDS_P1;SDS_P2;PMS_P1;PMS_P2;Temp;Humidity;BMP_temperature;BMP_pressure;BME280_temperature;BME280_humidity;BME280_pressure;Samples;Min_cycle;Max_cycle;Signal;HPM_P1;HPM_P2
2023/12/21 00:01:53;;;;;;;15.70;6.50;;;;;;;7.33;98.97;98552.06;79389;1297;3013888;-70
2023/12/21 00:04:19;;;;;;;11.40;6.70;;;;;;;7.63;96.57;98555.76;79407;1301;3012827;-68
2023/12/21 00:06:47;;;;;;;11.80;7.40;;;;;;;7.71;96.02;98553.89;78251;1297;3026686;-66
2023/12/21 00:09:14;;;;;;;12.40;7.40;;;;;;;7.56;96.31;98552.70;79459;1301;3013167;-69
2023/12/21 00:11:41;;;;;;;19.00;8.20;;;;;;;7.46;96.54;98545.67;79435;1298;3011650;-68
2023/12/21 00:14:10;;;;;;;14.30;6.90;;;;;;;7.26;97.78;98550.23;78081;1301;3026495;-69
2023/12/21 00:16:36;;;;;;;12.50;6.90;;;;;;;7.52;97.53;98547.21;79548;1301;3013951;-68
2023/12/21 00:19:03;;;;;;;14.00;7.50;;;;;;;7.84;95.50;98544.16;79518;1301;3011645;-68
2023/12/21 00:21:31;;;;;;;13.90;7.80;;;;;;;7.64;95.37;98544.23;78304;1300;3069541;-72
2023/12/21 00:23:58;;;;;;;15.50;7.90;;;;;;;7.40;96.92;98541.16;79401;1298;3012964;-67
2023/12/21 00:26:24;;;;;;;15.70;7.40;;;;;;;7.26;97.61;98537.02;79386;1300;3011654;-70
2023/12/21 00:28:52;;;;;;;10.10;5.70;;;;;;;6.90;98.96;98533.06;78262;1301;3025786;-69
2023/12/21 00:31:20;;;;;;;13.90;6.50;;;;;;;7.30;98.42;98518.46;79409;1300;3018306;-68
2023/12/21 00:33:46;;;;;;;13.80;7.10;;;;;;;7.70;95.73;98504.95;79630;1300;3011554;-71
2023/12/21 00:36:17;;;;;;;12.90;6.50;;;;;;;7.49;95.07;98505.92;78153;1300;3024865;-71
2023/12/21 00:38:44;;;;;;;11.30;6.90;;;;;;;7.17;96.20;98502.52;79421;1297;3012888;-68
2023/12/21 00:41:13;;;;;;;11.10;6.50;;;;;;;6.99;97.41;98488.83;78865;1300;3011542;-66
2023/12/21 00:43:39;;;;;;;10.70;6.20;;;;;;;6.72;98.24;98489.92;79349;1298;3013790;-69
2023/12/21 00:46:06;;;;;;;8.90;5.30;;;;;;;7.21;97.73;98493.02;79307;1301;3012941;-68
2023/12/21 00:48:34;;;;;;;10.70;5.90;;;;;;;7.26;95.34;98507.16;78170;1300;3025936;-67
2023/12/21 00:51:01;;;;;;;13.30;5.90;;;;;;;7.12;95.00;98489.60;79505;1300;3018419;-68
2023/12/21 00:53:27;;;;;;;9.50;5.60;;;;;;;6.82;96.00;98482.39;79323;1298;3011968;-69
2023/12/21 00:55:55;;;;;;;9.60;5.50;;;;;;;6.93;95.56;98469.69;78109;1300;3026401;-67
2023/12/21 00:58:22;;;;;;;11.60;6.20;;;;;;;6.79;95.26;98461.35;79507;1301;3013033;-69
2023/12/21 01:00:48;;;;;;;9.70;5.40;;;;;;;6.58;96.00;98463.10;79381;1298;3011671;-72
2023/12/21 01:03:18;;;;;;;11.30;5.80;;;;;;;6.90;94.33;98467.11;78193;1300;3028863;-67
2023/12/21 01:05:45;;;;;;;10.70;6.90;;;;;;;7.03;92.84;98465.45;79443;1298;3012950;-68
2023/12/21 01:08:12;;;;;;;11.60;6.70;;;;;;;6.88;92.09;98463.92;79370;1299;3013025;-68
2023/12/21 01:10:39;;;;;;;13.90;7.20;;;;;;;6.39;94.19;98466.33;78240;1301;3055990;-70
2023/12/21 01:13:07;;;;;;;12.00;8.10;;;;;;;6.12;95.83;98463.39;79415;1300;3013461;-67
2023/12/21 01:15:33;;;;;;;13.70;8.80;;;;;;;5.98;97.24;98459.48;79323;1300;3011640;-67
2023/12/21 01:18:01;;;;;;;18.30;8.80;;;;;;;5.84;97.93;98466.34;78263;1300;3026500;-71
2023/12/21 01:20:28;;;;;;;11.60;7.20;;;;;;;5.97;98.27;98465.79;79374;1298;3015855;-70
2023/12/21 01:22:54;;;;;;;11.30;6.70;;;;;;;6.36;96.04;98461.29;79404;1298;3011575;-66
2023/12/21 01:25:22;;;;;;;12.10;7.20;;;;;;;6.04;96.39;98468.02;78202;1298;3025716;-68
2023/12/21 01:27:49;;;;;;;12.70;7.60;;;;;;;5.79;98.05;98477.75;79547;1298;3012874;-69
2023/12/21 01:30:16;;;;;;;13.10;8.10;;;;;;;5.72;98.29;98477.27;79391;1298;3011579;-70
2023/12/21 01:32:44;;;;;;;10.50;7.70;;;;;;;5.64;99.32;98475.81;78210;1303;3026462;-71
2023/12/21 01:35:11;;;;;;;9.50;6.70;;;;;;;5.48;99.62;98480.90;79386;1300;3018519;-68
2023/12/21 01:37:37;;;;;;;12.00;7.50;;;;;;;5.81;98.57;98477.48;79291;1301;3013078;-69
2023/12/21 01:40:06;;;;;;;12.40;7.60;;;;;;;5.85;97.14;98473.08;78127;1298;3026695;-72
2023/12/21 01:42:33;;;;;;;12.80;8.20;;;;;;;5.85;96.58;98470.49;79412;1298;3013642;-69
2023/12/21 01:45:00;;;;;;;13.10;8.70;;;;;;;5.61;97.19;98470.76;79335;1302;3011390;-63
2023/12/21 01:47:28;;;;;;;17.20;9.90;;;;;;;5.53;97.71;98466.86;78191;1298;3050918;-64
2023/12/21 01:49:55;;;;;;;18.40;11.90;;;;;;;5.05;99.37;98463.08;79232;1303;3013005;-69
2023/12/21 01:52:22;;;;;;;17.10;10.00;;;;;;;4.98;100.00;98458.77;79405;1298;3011418;-68
2023/12/21 01:54:51;;;;;;;22.10;12.00;;;;;;;5.44;99.90;98451.39;78058;1298;3055336;-69
2023/12/21 01:57:17;;;;;;;22.70;12.30;;;;;;;6.00;97.25;98443.59;79350;1298;3014901;-72
2023/12/21 01:59:44;;;;;;;30.30;14.60;;;;;;;5.88;96.28;98445.65;79170;1298;3011600;-69
2023/12/21 02:02:12;;;;;;;33.80;18.00;;;;;;;5.69;96.39;98446.66;77967;1303;3051966;-67
2023/12/21 02:04:39;;;;;;;34.20;17.80;;;;;;;5.23;98.39;98452.23;79384;1301;3013099;-68
2023/12/21 02:07:05;;;;;;;36.90;17.50;;;;;;;5.35;99.25;98445.46;79311;1298;3012868;-66
2023/12/21 02:09:33;;;;;;;34.20;16.30;;;;;;;5.35;98.98;98436.06;78111;1298;3026328;-68
2023/12/21 02:12:00;;;;;;;39.80;17.70;;;;;;;5.82;98.02;98425.10;79365;1301;3018850;-67
2023/12/21 02:14:27;;;;;;;47.40;20.40;;;;;;;5.96;95.62;98423.61;79399;1301;3011795;-69
2023/12/21 02:16:57;;;;;;;43.60;19.80;;;;;;;5.73;96.11;98419.17;78146;1300;3052858;-69
2023/12/21 02:19:23;;;;;;;48.40;21.10;;;;;;;5.79;95.97;98413.26;79432;1301;3013686;-69
2023/12/21 02:21:51;;;;;;;45.70;19.00;;;;;;;5.62;96.23;98412.52;79253;1298;3011886;-69
2023/12/21 02:24:19;;;;;;;47.10;20.70;;;;;;;5.38;97.28;98416.10;78171;1298;3055762;-67
2023/12/21 02:26:46;;;;;;;36.60;17.00;;;;;;;5.17;98.64;98413.10;79357;1298;3013059;-68
2023/12/21 02:29:12;;;;;;;34.60;16.60;;;;;;;5.49;97.63;98396.02;79454;1298;3011694;-66
2023/12/21 02:31:40;;;;;;;36.70;17.30;;;;;;;5.77;95.17;98390.79;78144;1302;3026408;-69
2023/12/21 02:34:07;;;;;;;37.80;18.40;;;;;;;5.81;94.81;98392.27;79463;1298;3021331;-71
2023/12/21 02:36:35;;;;;;;40.70;18.90;;;;;;;5.55;95.08;98396.77;79324;1300;3013664;-67
2023/12/21 02:39:03;;;;;;;41.80;18.70;;;;;;;5.43;95.66;98401.09;78096;1300;3056453;-69
2023/12/21 02:41:30;;;;;;;38.00;18.60;;;;;;;5.23;96.56;98408.63;79303;1298;3013719;-68
2023/12/21 02:43:56;;;;;;;34.10;16.60;;;;;;;5.18;96.98;98398.80;79543;1298;3011639;-70
2023/12/21 02:46:25;;;;;;;38.40;18.20;;;;;;;5.49;96.11;98387.03;78165;1304;3026346;-68
2023/12/21 02:48:52;;;;;;;36.20;17.90;;;;;;;5.68;94.80;98377.45;79485;1300;3011634;-68
2023/12/21 02:51:19;;;;;;;39.60;18.20;;;;;;;5.87;93.67;98374.25;79359;1298;3012356;-67
2023/12/21 02:53:47;;;;;;;36.20;18.90;;;;;;;5.74;93.20;98375.67;78275;1298;3058907;-65
2023/12/21 02:56:13;;;;;;;42.10;20.50;;;;;;;5.51;94.24;98376.86;79352;1298;3013566;-67
2023/12/21 02:58:40;;;;;;;42.20;20.90;;;;;;;5.25;95.28;98386.26;79320;1298;3011880;-65
2023/12/21 03:01:08;;;;;;;34.70;17.70;;;;;;;5.07;96.81;98386.24;78236;1302;3027689;-66
2023/12/21 03:03:35;;;;;;;27.80;15.10;;;;;;;5.44;96.02;98383.34;79450;1303;3012675;-67
2023/12/21 03:06:01;;;;;;;39.80;18.30;;;;;;;5.65;94.15;98384.20;79377;1302;3011642;-65
2023/12/21 03:08:29;;;;;;;42.20;19.00;;;;;;;5.59;93.97;98381.57;78249;1298;3024945;-63
2023/12/21 03:10:56;;;;;;;41.20;18.80;;;;;;;5.54;94.37;98386.41;79244;1300;3013268;-66
2023/12/21 03:13:23;;;;;;;34.20;17.10;;;;;;;5.42;94.75;98392.60;79607;1297;3012763;-66
2023/12/21 03:15:51;;;;;;;38.80;18.30;;;;;;;5.42;95.09;98399.89;77962;1300;3026349;-67
2023/12/21 03:18:17;;;;;;;35.10;16.20;;;;;;;5.38;95.23;98405.70;79415;1300;3013167;-64
2023/12/21 03:20:44;;;;;;;37.70;18.60;;;;;;;5.65;94.72;98401.20;79310;1300;3011649;-67
2023/12/21 03:23:12;;;;;;;33.90;16.50;;;;;;;6.12;92.37;98395.03;78257;1297;3026307;-68
2023/12/21 03:25:39;;;;;;;34.50;16.60;;;;;;;6.10;91.13;98398.31;79386;1298;3013784;-64
2023/12/21 03:28:08;;;;;;;31.70;16.40;;;;;;;5.75;92.06;98401.14;79538;1297;3012289;-65
2023/12/21 03:30:36;;;;;;;34.50;16.10;;;;;;;5.54;93.46;98400.11;78322;1300;3051648;-70
2023/12/21 03:33:03;;;;;;;31.90;15.70;;;;;;;5.51;93.84;98398.20;79560;1297;3013374;-69
2023/12/21 03:35:31;;;;;;;27.20;13.20;;;;;;;5.45;94.29;98400.44;79379;1297;3011693;-67
2023/12/21 03:37:59;;;;;;;21.90;11.90;;;;;;;5.34;94.57;98397.42;78171;1297;3055906;-71
2023/12/21 03:40:25;;;;;;;21.40;11.10;;;;;;;5.79;93.71;98387.55;79469;1299;3012960;-69
2023/12/21 03:42:52;;;;;;;19.40;10.50;;;;;;;6.32;90.80;98379.24;79334;1298;3011469;-69
2023/12/21 03:45:20;;;;;;;19.20;10.70;;;;;;;6.34;89.55;98374.99;78166;1300;3025943;-71
2023/12/21 03:47:48;;;;;;;23.10;10.80;;;;;;;6.00;90.23;98369.50;79360;1297;3013095;-69
2023/12/21 03:50:15;;;;;;;19.80;10.40;;;;;;;6.04;90.99;98366.64;79506;1298;3013837;-70
2023/12/21 03:52:42;;;;;;;18.90;10.50;;;;;;;5.90;91.01;98365.04;78149;1298;3056012;-68
2023/12/21 03:55:09;;;;;;;16.50;8.60;;;;;;;5.82;91.54;98365.34;79496;1298;3013587;-66
2023/12/21 03:57:36;;;;;;;14.90;8.00;;;;;;;5.57;92.40;98376.33;79366;1300;3011910;-71
2023/12/21 04:00:05;;;;;;;13.90;7.70;;;;;;;5.81;92.36;98374.43;78188;1300;3028556;-71
2023/12/21 04:02:36;;;;;;;14.80;8.20;;;;;;;6.23;90.40;98375.09;79426;1297;3011622;-65
2023/12/21 04:05:05;;;;;;;13.20;8.10;;;;;;;6.31;89.52;98370.79;78277;1298;3069771;-68
2023/12/21 04:07:32;;;;;;;16.20;8.70;;;;;;;6.23;89.57;98368.16;79489;1298;3013584;-71
2023/12/21 04:09:59;;;;;;;16.20;8.00;;;;;;;6.21;89.47;98365.86;79414;1297;3012089;-68
2023/12/21 04:12:26;;;;;;;12.70;7.40;;;;;;;6.05;90.13;98367.14;78206;1297;3052767;-68
2023/12/21 04:14:53;;;;;;;13.70;7.80;;;;;;;5.69;91.34;98373.89;79403;1300;3013287;-69
2023/12/21 04:17:20;;;;;;;11.50;6.80;;;;;;;5.49;93.25;98372.27;79381;1300;3011695;-69
2023/12/21 04:19:48;;;;;;;11.20;7.40;;;;;;;6.08;92.08;98365.55;78321;1297;3026731;-71
2023/12/21 04:22:14;;;;;;;11.00;6.90;;;;;;;6.39;89.46;98364.23;79528;1300;3018602;-70
2023/12/21 04:24:41;;;;;;;11.20;7.70;;;;;;;6.50;88.55;98356.27;79303;1297;3011592;-69
2023/12/21 04:27:09;;;;;;;10.70;6.80;;;;;;;6.20;89.21;98357.56;78196;1297;3026013;-70
2023/12/21 04:29:37;;;;;;;11.50;7.30;;;;;;;6.12;89.97;98356.95;79520;1300;3019041;-70
2023/12/21 04:32:05;;;;;;;10.70;7.20;;;;;;;5.92;90.55;98357.27;79394;1300;3011917;-68
2023/12/21 04:34:33;;;;;;;10.80;7.10;;;;;;;5.71;91.93;98364.25;78305;1297;3068866;-71
2023/12/21 04:37:00;;;;;;;9.20;5.60;;;;;;;5.55;93.04;98368.98;79367;1298;3013157;-67
2023/12/21 04:39:27;;;;;;;10.70;6.30;;;;;;;6.10;92.01;98368.34;79458;1300;3013291;-72
2023/12/21 04:41:55;;;;;;;9.80;6.70;;;;;;;6.62;89.05;98364.02;78121;1300;3025794;-69
2023/12/21 04:44:22;;;;;;;8.20;5.70;;;;;;;6.65;88.17;98361.42;79549;1300;3013692;-69
2023/12/21 04:46:49;;;;;;;10.40;7.00;;;;;;;6.61;88.26;98360.41;79421;1300;3012057;-71
2023/12/21 04:49:19;;;;;;;11.90;7.10;;;;;;;6.39;88.92;98358.17;78278;1298;3068634;-71
2023/12/21 04:51:46;;;;;;;12.10;6.90;;;;;;;6.00;90.67;98354.70;79508;1298;3014176;-70
2023/12/21 04:54:13;;;;;;;14.00;7.00;;;;;;;5.75;92.82;98349.22;79557;1300;3011593;-71
2023/12/21 04:56:41;;;;;;;12.60;6.40;;;;;;;5.69;93.63;98350.42;78280;1299;3051977;-71
2023/12/21 04:59:08;;;;;;;11.70;6.10;;;;;;;6.09;93.04;98345.83;79391;1301;3019076;-69
2023/12/21 05:01:35;;;;;;;10.30;6.10;;;;;;;6.51;90.62;98351.86;79434;1300;3011769;-66
2023/12/21 05:04:03;;;;;;;9.00;6.10;;;;;;;6.56;89.81;98352.76;78213;1298;3028164;-71
2023/12/21 05:06:30;;;;;;;12.90;7.30;;;;;;;6.26;90.46;98357.55;79379;1298;3011842;-71
2023/12/21 05:08:56;;;;;;;10.80;6.70;;;;;;;6.22;91.15;98351.70;79371;1297;3013129;-68
2023/12/21 05:11:24;;;;;;;9.50;6.20;;;;;;;6.13;91.60;98350.47;78332;1298;3053633;-69
2023/12/21 05:13:51;;;;;;;12.80;7.90;;;;;;;6.07;92.25;98348.38;79551;1297;3012934;-71
2023/12/21 05:16:18;;;;;;;12.30;6.70;;;;;;;5.92;93.20;98347.35;79349;1300;3011627;-70
2023/12/21 05:18:47;;;;;;;10.10;6.20;;;;;;;6.28;92.08;98353.22;78209;1298;3026473;-68
2023/12/21 05:21:14;;;;;;;11.00;6.50;;;;;;;6.83;89.89;98365.53;79378;1298;3013243;-69
2023/12/21 05:23:41;;;;;;;12.50;6.60;;;;;;;6.96;88.27;98364.54;79542;1297;3011840;-68
2023/12/21 05:26:10;;;;;;;12.00;7.60;;;;;;;6.83;88.32;98362.53;78227;1298;3051236;-72
2023/12/21 05:28:42;;;;;;;11.10;7.30;;;;;;;6.61;89.03;98361.81;79439;1298;3011775;-71
2023/12/21 05:31:11;;;;;;;14.20;7.80;;;;;;;6.46;90.20;98358.39;78180;1300;3052047;-71
2023/12/21 05:33:38;;;;;;;12.60;8.50;;;;;;;6.19;91.37;98353.95;79457;1300;3013104;-70
2023/12/21 05:36:05;;;;;;;11.30;6.80;;;;;;;6.10;92.22;98352.37;79291;1302;3011433;-66
2023/12/21 05:38:34;;;;;;;12.20;7.60;;;;;;;6.67;91.68;98354.66;78436;1303;3056744;-68
2023/12/21 05:41:00;;;;;;;10.20;6.60;;;;;;;7.19;88.76;98361.31;79396;1297;3013562;-71
2023/12/21 05:43:27;;;;;;;11.50;7.20;;;;;;;7.27;87.64;98356.97;79374;1298;3011697;-69
2023/12/21 05:45:56;;;;;;;12.80;7.80;;;;;;;7.20;87.48;98345.95;78176;1302;3052187;-68
2023/12/21 05:48:23;;;;;;;14.30;7.40;;;;;;;6.89;88.12;98337.41;79348;1302;3012849;-68
2023/12/21 05:50:50;;;;;;;13.80;8.50;;;;;;;6.79;89.04;98328.34;79352;1298;3013757;-67
2023/12/21 05:53:18;;;;;;;13.30;8.10;;;;;;;6.60;89.46;98325.73;78203;1302;3055747;-70
2023/12/21 05:55:44;;;;;;;12.50;7.80;;;;;;;6.50;89.99;98326.88;79364;1297;3013472;-71
2023/12/21 05:58:11;;;;;;;11.10;7.30;;;;;;;6.28;90.67;98336.89;79363;1300;3011615;-69
2023/12/21 06:00:39;;;;;;;11.00;7.60;;;;;;;6.67;90.43;98335.54;78126;1297;3027883;-68
2023/12/21 06:03:05;;;;;;;9.70;6.50;;;;;;;7.03;88.25;98326.33;79568;1298;3012923;-69
2023/12/21 06:05:32;;;;;;;14.00;7.60;;;;;;;7.03;87.71;98320.19;79445;1297;3011621;-70
2023/12/21 06:08:00;;;;;;;13.50;8.10;;;;;;;6.89;88.40;98315.35;78129;1298;3028980;-70
2023/12/21 06:10:27;;;;;;;14.90;7.60;;;;;;;6.61;89.19;98312.07;79493;1297;3014066;-71
2023/12/21 06:12:53;;;;;;;18.00;9.00;;;;;;;6.36;90.69;98313.29;79429;1298;3013259;-69
2023/12/21 06:15:22;;;;;;;16.20;8.30;;;;;;;6.28;91.43;98309.77;78386;1301;3024961;-68
2023/12/21 06:17:48;;;;;;;14.20;8.40;;;;;;;6.37;91.64;98296.48;79411;1300;3012867;-68
2023/12/21 06:20:15;;;;;;;11.60;7.10;;;;;;;6.22;91.82;98295.69;79321;1298;3013734;-71
2023/12/21 06:22:43;;;;;;;11.70;7.10;;;;;;;6.75;90.76;98287.47;78151;1297;3028308;-69
2023/12/21 06:25:11;;;;;;;11.50;7.50;;;;;;;7.33;87.91;98271.56;79386;1301;3018553;-74
2023/12/21 06:27:38;;;;;;;12.90;7.60;;;;;;;7.48;86.83;98273.56;79397;1297;3012762;-71
2023/12/21 06:30:07;;;;;;;13.60;7.80;;;;;;;7.31;86.60;98264.77;78299;1297;3051972;-69
2023/12/21 06:32:34;;;;;;;13.10;7.10;;;;;;;7.02;87.10;98261.23;79574;1300;3013458;-70
2023/12/21 06:35:00;;;;;;;12.00;7.80;;;;;;;6.72;88.44;98258.99;79467;1298;3013194;-68
2023/12/21 06:37:28;;;;;;;16.40;8.10;;;;;;;6.50;89.63;98258.80;78218;1298;3056645;-71
2023/12/21 06:39:55;;;;;;;12.50;8.60;;;;;;;6.32;90.67;98254.52;79385;1297;3011625;-71
2023/12/21 06:42:22;;;;;;;11.00;5.80;;;;;;;6.25;91.00;98247.35;79546;1298;3011483;-70
2023/12/21 06:44:50;;;;;;;13.50;7.00;;;;;;;6.62;90.07;98248.01;78420;1300;3028421;-75
2023/12/21 06:47:16;;;;;;;9.80;6.70;;;;;;;6.98;87.88;98241.30;79605;1297;3011676;-71
2023/12/21 06:49:43;;;;;;;11.10;6.70;;;;;;;7.00;87.20;98242.60;79438;1297;3011646;-71
2023/12/21 06:52:11;;;;;;;11.30;6.80;;;;;;;6.96;87.01;98237.80;78141;1303;3025783;-64
2023/12/21 06:54:38;;;;;;;10.60;6.20;;;;;;;6.77;87.41;98241.83;79408;1298;3012944;-72
2023/12/21 06:57:05;;;;;;;10.80;6.60;;;;;;;6.68;87.42;98240.83;79577;1297;3011732;-72
2023/12/21 06:59:33;;;;;;;12.80;6.90;;;;;;;6.61;88.03;98238.83;78359;1300;3025920;-69
2023/12/21 07:01:59;;;;;;;10.40;6.50;;;;;;;6.38;88.63;98237.13;79522;1300;3012911;-72
2023/12/21 07:04:26;;;;;;;12.80;5.60;;;;;;;6.16;90.03;98235.52;79374;1298;3014209;-66
2023/12/21 07:06:56;;;;;;;10.30;5.90;;;;;;;6.57;89.34;98220.62;78313;1300;3026450;-68
2023/12/21 07:09:22;;;;;;;11.20;6.10;;;;;;;7.17;86.93;98215.90;79365;1298;3013050;-69
2023/12/21 07:11:49;;;;;;;12.90;5.90;;;;;;;7.11;86.47;98214.17;79527;1298;3011559;-71
2023/12/21 07:14:17;;;;;;;8.50;5.90;;;;;;;7.16;86.39;98213.67;78289;1300;3051837;-69
2023/12/21 07:16:43;;;;;;;15.50;6.90;;;;;;;6.98;86.53;98217.48;79476;1300;3013328;-69
2023/12/21 07:19:10;;;;;;;12.50;7.50;;;;;;;6.71;87.78;98228.23;79477;1297;3011340;-70
2023/12/21 07:21:38;;;;;;;13.50;7.20;;;;;;;6.40;89.78;98235.44;78173;1298;3026361;-72
2023/12/21 07:24:05;;;;;;;13.50;7.60;;;;;;;6.32;90.60;98238.54;79502;1298;3012990;-69
2023/12/21 07:26:32;;;;;;;13.60;6.90;;;;;;;6.21;90.97;98233.52;79424;1298;3011829;-70
2023/12/21 07:29:00;;;;;;;17.40;9.90;;;;;;;6.67;90.00;98233.24;78153;1298;3052602;-64
2023/12/21 07:31:27;;;;;;;18.70;10.00;;;;;;;7.08;87.85;98238.05;79325;1300;3013121;-75
2023/12/21 07:33:53;;;;;;;27.60;14.80;;;;;;;7.04;87.36;98238.81;79613;1298;3011988;-70
2023/12/21 07:36:21;;;;;;;27.10;13.20;;;;;;;6.90;88.43;98240.60;78401;1299;3025715;-68
2023/12/21 07:38:48;;;;;;;16.90;8.60;;;;;;;6.90;88.74;98234.34;79685;1297;3013236;-72
2023/12/21 07:41:14;;;;;;;17.20;9.00;;;;;;;6.85;89.20;98226.67;79461;1299;3013528;-69
2023/12/21 07:43:44;;;;;;;18.40;8.40;;;;;;;6.60;90.44;98222.71;78289;1300;3026170;-72
2023/12/21 07:46:11;;;;;;;15.90;6.90;;;;;;;6.68;90.46;98224.81;79464;1300;3011591;-72
2023/12/21 07:48:38;;;;;;;14.50;7.80;;;;;;;7.10;89.55;98223.31;79742;1298;3011576;-68
2023/12/21 07:51:08;;;;;;;17.80;7.90;;;;;;;7.64;87.19;98218.29;78504;1300;3054897;-71
2023/12/21 07:53:35;;;;;;;16.50;8.00;;;;;;;7.39;86.95;98213.58;79696;1300;3013776;-66
2023/12/21 07:56:02;;;;;;;27.60;11.00;;;;;;;7.32;87.67;98213.48;79401;1297;3011930;-70
2023/12/21 07:58:31;;;;;;;13.60;8.10;;;;;;;7.18;88.23;98211.96;78152;1300;3052714;-71
2023/12/21 08:00:58;;;;;;;17.00;8.10;;;;;;;7.06;88.51;98211.23;79423;1298;3015829;-68
2023/12/21 08:03:25;;;;;;;20.70;8.70;;;;;;;6.68;90.26;98207.56;79449;1297;3011542;-71
2023/12/21 08:05:53;;;;;;;14.90;7.20;;;;;;;6.57;91.63;98207.94;78019;1297;3055779;-71
2023/12/21 08:08:20;;;;;;;14.80;7.00;;;;;;;6.85;91.77;98218.45;79491;1298;3012991;-67
2023/12/21 08:10:46;;;;;;;15.90;8.50;;;;;;;7.20;89.94;98219.89;79516;1298;3012958;-70
2023/12/21 08:13:14;;;;;;;17.40;8.70;;;;;;;7.46;89.03;98220.41;78330;1297;3025902;-69
2023/12/21 08:15:41;;;;;;;23.20;9.30;;;;;;;7.60;88.27;98213.90;79245;1297;3013198;-72
2023/12/21 08:18:10;;;;;;;15.60;7.40;;;;;;;7.36;88.54;98214.12;79453;1300;3011729;-67
2023/12/21 08:20:42;;;;;;;15.30;9.20;;;;;;;7.03;89.59;98220.77;78297;1297;3058174;-73
2023/12/21 08:23:09;;;;;;;24.40;9.40;;;;;;;6.68;91.99;98214.55;79461;1298;3012897;-70
2023/12/21 08:25:37;;;;;;;16.20;7.40;;;;;;;6.81;92.44;98206.55;78380;1297;3053087;-70
2023/12/21 08:28:04;;;;;;;20.10;6.70;;;;;;;7.10;91.34;98205.53;79563;1300;3013212;-72
2023/12/21 08:30:31;;;;;;;17.20;8.50;;;;;;;7.31;89.86;98204.14;79500;1300;3011844;-68
2023/12/21 08:32:59;;;;;;;18.30;8.40;;;;;;;7.46;89.44;98189.73;78312;1300;3067628;-69
2023/12/21 08:35:26;;;;;;;15.90;8.60;;;;;;;7.45;89.31;98185.63;79475;1298;3019412;-67
2023/12/21 08:37:56;;;;;;;18.90;9.30;;;;;;;7.27;89.54;98184.05;79405;1297;3011694;-72
2023/12/21 08:40:24;;;;;;;17.90;8.10;;;;;;;7.06;90.44;98181.27;78247;1299;3051361;-70
2023/12/21 08:42:51;;;;;;;15.80;9.10;;;;;;;6.65;92.59;98176.13;79431;1298;3013334;-71
2023/12/21 08:45:17;;;;;;;16.40;7.70;;;;;;;6.62;93.80;98180.30;79360;1300;3012795;-73
2023/12/21 08:47:45;;;;;;;22.70;10.20;;;;;;;7.04;92.70;98181.75;78289;1298;3027146;-72
2023/12/21 08:50:12;;;;;;;13.80;8.00;;;;;;;7.35;91.00;98188.21;79327;1298;3013319;-72
2023/12/21 08:52:39;;;;;;;24.30;11.00;;;;;;;7.39;90.05;98184.44;79332;1297;3011641;-70
2023/12/21 08:55:08;;;;;;;22.20;10.30;;;;;;;7.24;90.59;98187.73;78193;1300;3028434;-68
2023/12/21 08:57:36;;;;;;;21.60;10.10;;;;;;;7.17;91.22;98183.67;79575;1300;3015815;-70
2023/12/21 09:00:07;;;;;;;17.40;9.60;;;;;;;6.91;92.24;98184.18;79490;1300;3012984;-72
2023/12/21 09:02:35;;;;;;;22.50;11.00;;;;;;;6.83;93.18;98178.41;78137;1298;3069327;-69
2023/12/21 09:05:02;;;;;;;16.90;7.90;;;;;;;6.86;93.25;98181.56;79409;1298;3013409;-72
2023/12/21 09:07:29;;;;;;;18.40;8.30;;;;;;;7.24;92.68;98174.32;79369;1297;3013033;-70
2023/12/21 09:09:57;;;;;;;18.60;9.20;;;;;;;7.44;90.76;98168.11;78443;1298;3025145;-71
2023/12/21 09:12:24;;;;;;;20.30;10.50;;;;;;;7.40;90.57;98157.73;79522;1300;3021212;-72
2023/12/21 09:14:52;;;;;;;23.40;9.50;;;;;;;7.35;91.16;98151.83;79618;1298;3011879;-73
2023/12/21 09:17:20;;;;;;;24.20;11.30;;;;;;;7.29;91.21;98149.58;78293;1298;3068987;-74
2023/12/21 09:19:48;;;;;;;19.90;9.50;;;;;;;7.17;91.76;98141.54;79502;1297;3013810;-70
2023/12/21 09:22:14;;;;;;;23.70;10.90;;;;;;;7.05;92.31;98136.42;79440;1300;3011591;-70
2023/12/21 09:24:42;;;;;;;22.80;9.60;;;;;;;6.83;93.57;98133.33;78204;1301;3052968;-71
2023/12/21 09:27:09;;;;;;;22.60;10.20;;;;;;;7.21;93.09;98134.09;79424;1300;3012818;-70
2023/12/21 09:29:36;;;;;;;21.40;11.10;;;;;;;7.86;89.83;98133.30;79573;1300;3011980;-70
2023/12/21 09:32:04;;;;;;;25.10;11.60;;;;;;;7.73;89.30;98122.50;78238;1297;3069603;-74
2023/12/21 09:34:31;;;;;;;22.30;10.50;;;;;;;7.44;90.42;98129.23;79548;1298;3013398;-69
2023/12/21 09:37:51;;;;;;;21.40;10.90;;;;;;;7.28;91.96;98133.79;80311;1301;3013011;-75
2023/12/21 09:40:18;;;;;;;24.80;13.20;;;;;;;7.05;93.13;98129.27;79203;1302;3015917;-72
2023/12/21 09:42:47;;;;;;;22.50;10.10;;;;;;;7.04;93.90;98131.92;79170;1307;3011910;-72
2023/12/21 09:45:14;;;;;;;26.00;11.20;;;;;;;7.61;92.70;98132.41;78092;1304;3052027;-72
2023/12/21 09:47:41;;;;;;;24.00;10.70;;;;;;;8.16;89.88;98124.38;79405;1299;3013641;-78
2023/12/21 09:50:08;;;;;;;23.50;11.20;;;;;;;8.19;88.16;98124.33;79266;1304;3011802;-75
2023/12/21 09:52:37;;;;;;;25.10;11.20;;;;;;;7.89;88.74;98121.19;78307;1295;3026278;-71
2023/12/21 09:55:05;;;;;;;26.70;11.40;;;;;;;7.51;90.51;98115.86;79564;1297;3013409;-72
2023/12/21 09:57:35;;;;;;;26.60;11.40;;;;;;;7.50;91.14;98106.34;78962;1301;3013353;-70
2023/12/21 10:00:02;;;;;;;23.90;10.50;;;;;;;7.36;91.66;98101.23;79524;1301;3018711;-72
2023/12/21 10:02:40;;;;;;;27.10;9.60;;;;;;;7.02;93.47;98103.67;78273;1296;3069676;-71
2023/12/21 10:05:07;;;;;;;21.70;9.90;;;;;;;7.41;92.52;98106.60;79566;1302;3013214;-75
2023/12/21 10:07:34;;;;;;;21.50;9.50;;;;;;;7.92;90.57;98107.40;79502;1295;3011757;-71
2023/12/21 10:10:02;;;;;;;24.00;10.20;;;;;;;8.02;89.30;98104.61;78346;1296;3052700;-72
2023/12/21 10:12:29;;;;;;;28.80;12.40;;;;;;;7.77;89.62;98096.43;79496;1298;3012664;-71
2023/12/21 10:14:57;;;;;;;25.10;12.40;;;;;;;7.61;90.85;98094.27;79536;1298;3011791;-70
2023/12/21 10:17:25;;;;;;;26.90;11.40;;;;;;;7.60;90.91;98088.08;78173;1299;3068142;-73
2023/12/21 10:19:52;;;;;;;25.70;11.30;;;;;;;7.57;90.70;98081.80;79660;1295;3019424;-69
2023/12/21 10:22:19;;;;;;;19.50;9.00;;;;;;;7.51;90.04;98070.23;79484;1295;3011556;-71
2023/12/21 10:24:49;;;;;;;27.40;11.00;;;;;;;7.66;90.51;98059.05;78286;1295;3026254;-74
2023/12/21 10:27:18;;;;;;;33.50;15.20;;;;;;;8.19;89.21;98049.98;79487;1301;3013510;-72
2023/12/21 10:29:53;;;;;;;40.00;15.90;;;;;;;8.20;88.28;98047.20;78254;1301;3053731;-65
2023/12/21 10:32:22;;;;;;;37.20;16.10;;;;;;;7.96;88.69;98034.59;79085;1300;3013298;-70
2023/12/21 10:34:49;;;;;;;24.50;10.30;;;;;;;7.70;90.02;98035.08;79543;1296;3018986;-70
2023/12/21 10:37:16;;;;;;;25.80;10.40;;;;;;;7.39;91.48;98032.71;79557;1295;3011662;-73
2023/12/21 10:39:44;;;;;;;24.30;10.10;;;;;;;7.24;92.46;98033.05;78414;1295;3056298;-70
2023/12/21 10:42:13;;;;;;;14.90;8.00;;;;;;;7.03;93.60;98033.83;79673;1300;3013263;-68
2023/12/21 10:44:47;;;;;;;17.40;8.30;;;;;;;7.74;92.55;98030.39;79164;1300;3013080;-69
2023/12/21 10:47:17;;;;;;;21.70;9.20;;;;;;;8.15;89.46;98022.25;79762;1298;3011659;-70
2023/12/21 10:49:45;;;;;;;22.70;11.60;;;;;;;8.29;88.64;98026.80;78405;1304;3052711;-72
2023/12/21 10:52:12;;;;;;;26.10;12.10;;;;;;;8.03;88.49;98027.05;79889;1296;3012746;-71
2023/12/21 10:54:42;;;;;;;27.50;11.50;;;;;;;7.82;89.30;98027.23;79458;1296;3011627;-75
2023/12/21 10:57:10;;;;;;;26.70;12.90;;;;;;;7.62;90.28;98027.76;78223;1297;3056230;-73
2023/12/21 10:59:37;;;;;;;38.10;15.10;;;;;;;7.35;91.72;98026.92;79594;1301;3013516;-74
2023/12/21 11:02:04;;;;;;;22.40;9.50;;;;;;;7.17;93.31;98032.12;79495;1301;3011640;-70
2023/12/21 11:04:32;;;;;;;25.60;11.20;;;;;;;7.56;92.96;98029.08;78312;1301;3052794;-68
2023/12/21 11:06:58;;;;;;;26.30;12.20;;;;;;;8.10;90.31;98020.70;79345;1304;3013147;-73
2023/12/21 11:09:26;;;;;;;21.60;11.30;;;;;;;7.95;90.27;98017.94;79362;1295;3011788;-75
2023/12/21 11:11:57;;;;;;;26.00;12.20;;;;;;;7.78;90.78;98015.14;78314;1300;3056049;-74
2023/12/21 11:14:24;;;;;;;30.90;13.00;;;;;;;7.77;91.39;98013.24;79529;1301;3012888;-69
2023/12/21 11:16:55;;;;;;;29.90;13.90;;;;;;;7.65;91.05;98013.83;79002;1295;3011675;-71